sensor_id;sensor_type;location;lat;lon;timestamp;pressure;altitude;pressure_sealevel;temperature;humidity
80648;BME280;70012;0.000;0.000;2024-02-15T00:02:23;100900.16;;;10.53;88.64
80648;BME280;70012;0.000;0.000;2024-02-15T00:04:49;100900.16;;;10.53;88.56
80648;BME280;70012;0.000;0.000;2024-02-15T00:07:16;100899.06;;;10.54;88.69
80648;BME280;70012;0.000;0.000;2024-02-15T00:09:43;100907.28;;;10.54;89.02
80648;BME280;70012;0.000;0.000;2024-02-15T00:12:09;100905.63;;;10.53;88.78
80648;BME280;70012;0.000;0.000;2024-02-15T00:14:36;100897.41;;;10.53;89.04
80648;BME280;70012;0.000;0.000;2024-02-15T00:17:05;100898.50;;;10.52;88.60
80648;BME280;70012;0.000;0.000;2024-02-15T00:19:32;100896.56;;;10.53;88.86
80648;BME280;70012;0.000;0.000;2024-02-15T00:21:59;100895.97;;;10.51;88.97
80648;BME280;70012;0.000;0.000;2024-02-15T00:24:26;100891.94;;;10.53;88.78
80648;BME280;70012;0.000;0.000;2024-02-15T00:26:54;100894.69;;;10.53;88.94
80648;BME280;70012;0.000;0.000;2024-02-15T00:29:20;100892.75;;;10.54;88.84
80648;BME280;70012;0.000;0.000;2024-02-15T00:31:47;100891.94;;;10.53;88.79
80648;BME280;70012;0.000;0.000;2024-02-15T00:34:16;100891.09;;;10.53;88.48
80648;BME280;70012;0.000;0.000;2024-02-15T00:36:44;100900.16;;;10.53;88.47
80648;BME280;70012;0.000;0.000;2024-02-15T00:39:11;100887.53;;;10.52;88.41
80648;BME280;70012;0.000;0.000;2024-02-15T00:41:38;100897.63;;;10.52;88.25
80648;BME280;70012;0.000;0.000;2024-02-15T00:44:09;100895.97;;;10.51;88.23
80648;BME280;70012;0.000;0.000;2024-02-15T00:46:39;100895.63;;;10.47;88.38
80648;BME280;70012;0.000;0.000;2024-02-15T00:49:08;100895.03;;;10.45;88.17
80648;BME280;70012;0.000;0.000;2024-02-15T00:51:35;100892.78;;;10.42;88.53
80648;BME280;70012;0.000;0.000;2024-02-15T00:54:03;100889.47;;;10.40;88.39
80648;BME280;70012;0.000;0.000;2024-02-15T00:56:30;100896.00;;;10.39;88.49
80648;BME280;70012;0.000;0.000;2024-02-15T00:59:01;100902.97;;;10.35;88.40
80648;BME280;70012;0.000;0.000;2024-02-15T01:01:28;100906.78;;;10.34;88.55
80648;BME280;70012;0.000;0.000;2024-02-15T01:03:54;100904.03;;;10.34;88.28
80648;BME280;70012;0.000;0.000;2024-02-15T01:06:21;100904.28;;;10.32;88.63
80648;BME280;70012;0.000;0.000;2024-02-15T01:08:49;100908.94;;;10.32;88.41
80648;BME280;70012;0.000;0.000;2024-02-15T01:11:16;100905.59;;;10.30;88.86
80648;BME280;70012;0.000;0.000;2024-02-15T01:13:43;100901.78;;;10.31;88.68
80648;BME280;70012;0.000;0.000;2024-02-15T01:16:11;100901.78;;;10.31;88.73
80648;BME280;70012;0.000;0.000;2024-02-15T01:18:38;100899.88;;;10.31;88.82
80648;BME280;70012;0.000;0.000;2024-02-15T01:21:05;100898.44;;;10.29;88.76
80648;BME280;70012;0.000;0.000;2024-02-15T01:23:33;100903.34;;;10.27;89.11
80648;BME280;70012;0.000;0.000;2024-02-15T01:26:02;100893.22;;;10.27;88.81
80648;BME280;70012;0.000;0.000;2024-02-15T01:28:29;100898.69;;;10.27;88.80
80648;BME280;70012;0.000;0.000;2024-02-15T01:30:55;100895.13;;;10.27;89.19
80648;BME280;70012;0.000;0.000;2024-02-15T01:33:22;100889.66;;;10.27;89.22
80648;BME280;70012;0.000;0.000;2024-02-15T01:35:49;100890.72;;;10.25;89.11
80648;BME280;70012;0.000;0.000;2024-02-15T01:38:16;100882.03;;;10.29;89.35
80648;BME280;70012;0.000;0.000;2024-02-15T01:40:43;100890.84;;;10.31;89.66
80648;BME280;70012;0.000;0.000;2024-02-15T01:43:09;100885.38;;;10.31;89.60
80648;BME280;70012;0.000;0.000;2024-02-15T01:45:36;100884.88;;;10.34;89.66
80648;BME280;70012;0.000;0.000;2024-02-15T01:48:03;100877.53;;;10.34;89.37
80648;BME280;70012;0.000;0.000;2024-02-15T01:50:31;100873.50;;;10.37;89.97
80648;BME280;70012;0.000;0.000;2024-02-15T01:53:01;100876.84;;;10.39;89.63
80648;BME280;70012;0.000;0.000;2024-02-15T01:55:30;100871.72;;;10.43;89.52
80648;BME280;70012;0.000;0.000;2024-02-15T01:57:56;100882.16;;;10.46;89.46
80648;BME280;70012;0.000;0.000;2024-02-15T02:00:23;100872.06;;;10.46;89.57
80648;BME280;70012;0.000;0.000;2024-02-15T02:02:53;100872.66;;;10.48;89.30
80648;BME280;70012;0.000;0.000;2024-02-15T02:05:19;100873.25;;;10.50;89.44
80648;BME280;70012;0.000;0.000;2024-02-15T02:07:46;100867.31;;;10.53;89.74
80648;BME280;70012;0.000;0.000;2024-02-15T02:10:13;100867.31;;;10.53;89.52
80648;BME280;70012;0.000;0.000;2024-02-15T02:12:42;100859.44;;;10.57;89.03
80648;BME280;70012;0.000;0.000;2024-02-15T02:15:09;100860.00;;;10.59;89.36
80648;BME280;70012;0.000;0.000;2024-02-15T02:17:37;100861.94;;;10.59;89.49
80648;BME280;70012;0.000;0.000;2024-02-15T02:20:06;100859.19;;;10.59;89.61
80648;BME280;70012;0.000;0.000;2024-02-15T02:22:35;100858.13;;;10.60;89.30
80648;BME280;70012;0.000;0.000;2024-02-15T02:25:07;100853.22;;;10.62;89.14
80648;BME280;70012;0.000;0.000;2024-02-15T02:27:37;100851.56;;;10.61;89.29
80648;BME280;70012;0.000;0.000;2024-02-15T02:30:05;100843.94;;;10.63;89.10
80648;BME280;70012;0.000;0.000;2024-02-15T02:32:39;100852.16;;;10.63;88.90
80648;BME280;70012;0.000;0.000;2024-02-15T02:35:06;100854.06;;;10.62;89.36
80648;BME280;70012;0.000;0.000;2024-02-15T02:37:33;100852.41;;;10.61;89.42
80648;BME280;70012;0.000;0.000;2024-02-15T02:40:06;100851.56;;;10.61;88.99
80648;BME280;70012;0.000;0.000;2024-02-15T02:42:36;100837.28;;;10.59;89.08
80648;BME280;70012;0.000;0.000;2024-02-15T02:45:12;100836.09;;;10.54;89.11
80648;BME280;70012;0.000;0.000;2024-02-15T02:47:39;100836.09;;;10.54;88.76
80648;BME280;70012;0.000;0.000;2024-02-15T02:50:06;100838.25;;;10.52;89.02
80648;BME280;70012;0.000;0.000;2024-02-15T02:52:34;100831.13;;;10.51;88.92
80648;BME280;70012;0.000;0.000;2024-02-15T02:55:01;100822.56;;;10.48;89.22
80648;BME280;70012;0.000;0.000;2024-02-15T02:57:28;100822.81;;;10.46;89.20
80648;BME280;70012;0.000;0.000;2024-02-15T02:59:54;100820.63;;;10.48;89.00
80648;BME280;70012;0.000;0.000;2024-02-15T03:02:21;100821.94;;;10.46;89.03
80648;BME280;70012;0.000;0.000;2024-02-15T03:04:49;100815.66;;;10.45;89.12
80648;BME280;70012;0.000;0.000;2024-02-15T03:07:15;100823.28;;;10.43;89.54
80648;BME280;70012;0.000;0.000;2024-02-15T03:09:45;100815.91;;;10.44;89.02
80648;BME280;70012;0.000;0.000;2024-02-15T03:12:12;100811.72;;;10.41;89.19
80648;BME280;70012;0.000;0.000;2024-02-15T03:14:38;100816.63;;;10.39;89.05
80648;BME280;70012;0.000;0.000;2024-02-15T03:17:07;100811.16;;;10.39;89.16
80648;BME280;70012;0.000;0.000;2024-02-15T03:19:34;100822.53;;;10.36;89.24
80648;BME280;70012;0.000;0.000;2024-02-15T03:22:01;100815.88;;;10.32;89.26
80648;BME280;70012;0.000;0.000;2024-02-15T03:24:28;100814.22;;;10.31;89.17
80648;BME280;70012;0.000;0.000;2024-02-15T03:26:54;100810.88;;;10.29;89.22
80648;BME280;70012;0.000;0.000;2024-02-15T03:29:22;100808.84;;;10.24;89.47
80648;BME280;70012;0.000;0.000;2024-02-15T03:31:49;100805.06;;;10.25;89.50
80648;BME280;70012;0.000;0.000;2024-02-15T03:34:15;100814.34;;;10.24;89.62
80648;BME280;70012;0.000;0.000;2024-02-15T03:36:43;100813.50;;;10.23;89.82
80648;BME280;70012;0.000;0.000;2024-02-15T03:39:09;100809.72;;;10.24;89.76
80648;BME280;70012;0.000;0.000;2024-02-15T03:41:36;100809.72;;;10.24;89.58
80648;BME280;70012;0.000;0.000;2024-02-15T03:44:03;100798.16;;;10.22;90.09
80648;BME280;70012;0.000;0.000;2024-02-15T03:46:30;100800.44;;;10.25;90.14
80648;BME280;70012;0.000;0.000;2024-02-15T03:48:57;100790.56;;;10.24;90.09
80648;BME280;70012;0.000;0.000;2024-02-15T03:51:24;100795.31;;;10.29;89.66
80648;BME280;70012;0.000;0.000;2024-02-15T03:53:51;100789.59;;;10.31;90.05
80648;BME280;70012;0.000;0.000;2024-02-15T03:56:19;100795.66;;;10.33;90.31
80648;BME280;70012;0.000;0.000;2024-02-15T03:58:48;100795.66;;;10.33;89.61
80648;BME280;70012;0.000;0.000;2024-02-15T04:01:17;100797.56;;;10.32;89.68
80648;BME280;70012;0.000;0.000;2024-02-15T04:03:43;100801.97;;;10.33;89.77
80648;BME280;70012;0.000;0.000;2024-02-15T04:06:11;100792.31;;;10.31;89.85
80648;BME280;70012;0.000;0.000;2024-02-15T04:08:38;100793.16;;;10.31;89.84
80648;BME280;70012;0.000;0.000;2024-02-15T04:11:05;100804.94;;;10.32;89.74
80648;BME280;70012;0.000;0.000;2024-02-15T04:13:34;100816.72;;;10.32;89.34
80648;BME280;70012;0.000;0.000;2024-02-15T04:16:00;100814.22;;;10.31;89.42
80648;BME280;70012;0.000;0.000;2024-02-15T04:18:27;100806.47;;;10.28;89.75
80648;BME280;70012;0.000;0.000;2024-02-15T04:20:58;100799.94;;;10.29;89.82
80648;BME280;70012;0.000;0.000;2024-02-15T04:23:25;100809.22;;;10.28;89.60
80648;BME280;70012;0.000;0.000;2024-02-15T04:25:52;100804.84;;;10.27;89.64
80648;BME280;70012;0.000;0.000;2024-02-15T04:28:20;100803.16;;;10.25;89.47
80648;BME280;70012;0.000;0.000;2024-02-15T04:30:47;100801.50;;;10.24;89.50
80648;BME280;70012;0.000;0.000;2024-02-15T04:33:15;100806.38;;;10.22;89.36
80648;BME280;70012;0.000;0.000;2024-02-15T04:35:43;100805.75;;;10.20;89.54
80648;BME280;70012;0.000;0.000;2024-02-15T04:38:10;100801.41;;;10.19;89.56
80648;BME280;70012;0.000;0.000;2024-02-15T04:40:37;100805.19;;;10.18;89.27
80648;BME280;70012;0.000;0.000;2024-02-15T04:43:06;100802.72;;;10.17;89.42
80648;BME280;70012;0.000;0.000;2024-02-15T04:45:35;100806.50;;;10.16;89.44
80648;BME280;70012;0.000;0.000;2024-02-15T04:48:02;100798.78;;;10.13;89.35
80648;BME280;70012;0.000;0.000;2024-02-15T04:50:29;100804.50;;;10.11;89.64
80648;BME280;70012;0.000;0.000;2024-02-15T04:52:56;100796.03;;;10.13;89.52
80648;BME280;70012;0.000;0.000;2024-02-15T04:55:22;100807.22;;;10.11;89.46
80648;BME280;70012;0.000;0.000;2024-02-15T04:57:49;100798.41;;;10.09;89.67
80648;BME280;70012;0.000;0.000;2024-02-15T05:00:23;100794.00;;;10.08;89.86
80648;BME280;70012;0.000;0.000;2024-02-15T05:02:52;100794.00;;;10.08;89.87
80648;BME280;70012;0.000;0.000;2024-02-15T05:05:20;100788.53;;;10.08;89.81
80648;BME280;70012;0.000;0.000;2024-02-15T05:07:47;100787.22;;;10.10;89.82
80648;BME280;70012;0.000;0.000;2024-02-15T05:10:15;100786.41;;;10.10;90.29
80648;BME280;70012;0.000;0.000;2024-02-15T05:12:42;100784.72;;;10.09;90.32
80648;BME280;70012;0.000;0.000;2024-02-15T05:15:09;100788.06;;;10.11;89.78
80648;BME280;70012;0.000;0.000;2024-02-15T05:17:40;100780.94;;;10.10;90.13
80648;BME280;70012;0.000;0.000;2024-02-15T05:20:10;100782.84;;;10.09;90.18
80648;BME280;70012;0.000;0.000;2024-02-15T05:22:41;100788.88;;;10.12;89.93
80648;BME280;70012;0.000;0.000;2024-02-15T05:25:17;100779.88;;;10.11;90.26
80648;BME280;70012;0.000;0.000;2024-02-15T05:27:51;100780.13;;;10.09;90.42
80648;BME280;70012;0.000;0.000;2024-02-15T05:30:21;100773.78;;;10.09;89.87
80648;BME280;70012;0.000;0.000;2024-02-15T05:32:48;100770.00;;;10.10;90.18
80648;BME280;70012;0.000;0.000;2024-02-15T05:35:16;100773.31;;;10.12;90.16
80648;BME280;70012;0.000;0.000;2024-02-15T05:37:44;100771.16;;;10.14;89.96
80648;BME280;70012;0.000;0.000;2024-02-15T05:40:12;100771.16;;;10.14;89.88
80648;BME280;70012;0.000;0.000;2024-02-15T05:42:42;100766.53;;;10.15;90.05
80648;BME280;70012;0.000;0.000;2024-02-15T05:47:56;100766.03;;;10.18;90.10
80648;BME280;70012;0.000;0.000;2024-02-15T05:50:22;100769.13;;;10.21;90.27
80648;BME280;70012;0.000;0.000;2024-02-15T05:52:51;100772.47;;;10.23;89.92
80648;BME280;70012;0.000;0.000;2024-02-15T05:55:21;100767.59;;;10.25;89.82
80648;BME280;70012;0.000;0.000;2024-02-15T05:57:48;100759.94;;;10.28;89.86
80648;BME280;70012;0.000;0.000;2024-02-15T06:00:15;100761.63;;;10.29;89.92
80648;BME280;70012;0.000;0.000;2024-02-15T06:02:49;100758.66;;;10.30;89.62
80648;BME280;70012;0.000;0.000;2024-02-15T06:05:17;100754.00;;;10.31;89.46
80648;BME280;70012;0.000;0.000;2024-02-15T06:07:44;100760.09;;;10.33;89.53
80648;BME280;70012;0.000;0.000;2024-02-15T06:10:13;100760.66;;;10.35;89.68
80648;BME280;70012;0.000;0.000;2024-02-15T06:12:41;100756.84;;;10.36;89.38
80648;BME280;70012;0.000;0.000;2024-02-15T06:15:08;100761.88;;;10.39;89.51
80648;BME280;70012;0.000;0.000;2024-02-15T06:17:43;100760.56;;;10.41;89.44
80648;BME280;70012;0.000;0.000;2024-02-15T06:20:14;100763.06;;;10.43;89.13
80648;BME280;70012;0.000;0.000;2024-02-15T06:22:41;100750.44;;;10.42;89.12
80648;BME280;70012;0.000;0.000;2024-02-15T06:25:08;100762.81;;;10.45;88.90
80648;BME280;70012;0.000;0.000;2024-02-15T06:27:35;100751.28;;;10.43;88.86
80648;BME280;70012;0.000;0.000;2024-02-15T06:30:11;100758.75;;;10.47;88.92
80648;BME280;70012;0.000;0.000;2024-02-15T06:32:57;100754.94;;;10.48;88.74
80648;BME280;70012;0.000;0.000;2024-02-15T06:35:43;100756.59;;;10.49;88.56
80648;BME280;70012;0.000;0.000;2024-02-15T06:38:28;100757.81;;;10.53;88.60
80648;BME280;70012;0.000;0.000;2024-02-15T06:41:14;100749.34;;;10.55;88.23
80648;BME280;70012;0.000;0.000;2024-02-15T06:43:40;100755.63;;;10.55;88.22
80648;BME280;70012;0.000;0.000;2024-02-15T06:46:07;100756.47;;;10.56;88.33
80648;BME280;70012;0.000;0.000;2024-02-15T06:48:34;100755.16;;;10.59;87.87
80648;BME280;70012;0.000;0.000;2024-02-15T06:51:01;100765.59;;;10.62;87.88
80648;BME280;70012;0.000;0.000;2024-02-15T06:53:29;100757.16;;;10.63;88.05
80648;BME280;70012;0.000;0.000;2024-02-15T06:55:57;100764.06;;;10.66;87.70
80648;BME280;70012;0.000;0.000;2024-02-15T06:58:23;100758.59;;;10.66;87.78
80648;BME280;70012;0.000;0.000;2024-02-15T07:00:50;100765.72;;;10.67;87.97
80648;BME280;70012;0.000;0.000;2024-02-15T07:03:16;100768.22;;;10.68;87.83
80648;BME280;70012;0.000;0.000;2024-02-15T07:05:43;100768.47;;;10.67;87.77
80648;BME280;70012;0.000;0.000;2024-02-15T07:08:10;100766.28;;;10.69;87.85
80648;BME280;70012;0.000;0.000;2024-02-15T07:10:39;100767.97;;;10.70;87.80
80648;BME280;70012;0.000;0.000;2024-02-15T07:13:05;100771.31;;;10.72;87.52
80648;BME280;70012;0.000;0.000;2024-02-15T07:15:33;100776.78;;;10.72;87.51
80648;BME280;70012;0.000;0.000;2024-02-15T07:18:05;100778.44;;;10.73;87.55
80648;BME280;70012;0.000;0.000;2024-02-15T07:20:33;100780.09;;;10.74;87.20
80648;BME280;70012;0.000;0.000;2024-02-15T07:23:00;100781.28;;;10.78;86.81
80648;BME280;70012;0.000;0.000;2024-02-15T07:25:27;100781.88;;;10.80;87.06
80648;BME280;70012;0.000;0.000;2024-02-15T07:27:53;100791.72;;;10.81;86.71
80648;BME280;70012;0.000;0.000;2024-02-15T07:30:20;100794.59;;;10.86;86.62
80648;BME280;70012;0.000;0.000;2024-02-15T07:32:51;100798.97;;;10.87;86.37
80648;BME280;70012;0.000;0.000;2024-02-15T07:35:18;100799.56;;;10.89;85.99
80648;BME280;70012;0.000;0.000;2024-02-15T07:37:51;100795.75;;;10.91;86.33
80648;BME280;70012;0.000;0.000;2024-02-15T07:40:18;100806.72;;;10.91;86.24
80648;BME280;70012;0.000;0.000;2024-02-15T07:42:45;100802.03;;;10.91;86.36
80648;BME280;70012;0.000;0.000;2024-02-15T07:45:13;100802.03;;;10.91;86.26
80648;BME280;70012;0.000;0.000;2024-02-15T07:47:40;100803.25;;;10.95;85.74
80648;BME280;70012;0.000;0.000;2024-02-15T07:50:07;100812.03;;;10.97;85.74
80648;BME280;70012;0.000;0.000;2024-02-15T07:52:36;100807.41;;;10.98;85.53
80648;BME280;70012;0.000;0.000;2024-02-15T07:55:02;100803.31;;;11.00;85.67
80648;BME280;70012;0.000;0.000;2024-02-15T07:57:34;100805.59;;;11.03;84.92
80648;BME280;70012;0.000;0.000;2024-02-15T08:00:01;100804.28;;;11.06;84.83
80648;BME280;70012;0.000;0.000;2024-02-15T08:02:31;100809.75;;;11.06;85.06
80648;BME280;70012;0.000;0.000;2024-02-15T08:04:58;100800.28;;;11.14;84.52
80648;BME280;70012;0.000;0.000;2024-02-15T08:07:25;100803.28;;;11.12;84.82
80648;BME280;70012;0.000;0.000;2024-02-15T08:09:57;100795.63;;;11.14;84.94
80648;BME280;70012;0.000;0.000;2024-02-15T08:12:24;100801.97;;;11.15;85.44
80648;BME280;70012;0.000;0.000;2024-02-15T08:14:51;100807.78;;;11.18;84.62
80648;BME280;70012;0.000;0.000;2024-02-15T08:17:17;100806.69;;;11.19;84.84
80648;BME280;70012;0.000;0.000;2024-02-15T08:19:44;100805.63;;;11.20;84.54
80648;BME280;70012;0.000;0.000;2024-02-15T08:22:12;100797.50;;;11.26;84.67
80648;BME280;70012;0.000;0.000;2024-02-15T08:24:39;100801.31;;;11.25;84.78
80648;BME280;70012;0.000;0.000;2024-02-15T08:27:06;100794.41;;;11.22;85.05
80648;BME280;70012;0.000;0.000;2024-02-15T08:29:32;100796.09;;;11.23;85.62
80648;BME280;70012;0.000;0.000;2024-02-15T08:32:00;100794.66;;;11.20;85.47
80648;BME280;70012;0.000;0.000;2024-02-15T08:34:27;100792.16;;;11.19;86.08
80648;BME280;70012;0.000;0.000;2024-02-15T08:36:54;100790.75;;;11.16;86.30
80648;BME280;70012;0.000;0.000;2024-02-15T08:39:21;100788.50;;;11.13;86.46
80648;BME280;70012;0.000;0.000;2024-02-15T08:41:50;100788.72;;;11.12;86.47
80648;BME280;70012;0.000;0.000;2024-02-15T08:44:17;100785.19;;;11.11;86.83
80648;BME280;70012;0.000;0.000;2024-02-15T08:46:45;100790.66;;;11.11;86.75
80648;BME280;70012;0.000;0.000;2024-02-15T08:49:14;100776.34;;;11.09;87.00
80648;BME280;70012;0.000;0.000;2024-02-15T08:51:41;100771.38;;;11.06;86.79
80648;BME280;70012;0.000;0.000;2024-02-15T08:54:08;100771.94;;;11.08;86.96
80648;BME280;70012;0.000;0.000;2024-02-15T08:56:35;100782.69;;;11.10;86.97
80648;BME280;70012;0.000;0.000;2024-02-15T08:59:02;100773.88;;;11.08;86.93
80648;BME280;70012;0.000;0.000;2024-02-15T09:01:30;100769.56;;;11.12;86.90
80648;BME280;70012;0.000;0.000;2024-02-15T09:03:57;100772.06;;;11.13;86.46
80648;BME280;70012;0.000;0.000;2024-02-15T09:06:23;100759.78;;;11.16;86.49
80648;BME280;70012;0.000;0.000;2024-02-15T09:08:50;100763.41;;;11.21;86.40
80648;BME280;70012;0.000;0.000;2024-02-15T09:11:18;100762.09;;;11.24;85.97
80648;BME280;70012;0.000;0.000;2024-02-15T09:13:45;100765.75;;;11.30;86.18
80648;BME280;70012;0.000;0.000;2024-02-15T09:16:13;100757.63;;;11.35;85.74
80648;BME280;70012;0.000;0.000;2024-02-15T09:18:40;100757.94;;;11.38;85.80
80648;BME280;70012;0.000;0.000;2024-02-15T09:21:12;100759.94;;;11.43;85.44
80648;BME280;70012;0.000;0.000;2024-02-15T09:23:39;100755.88;;;11.46;85.71
80648;BME280;70012;0.000;0.000;2024-02-15T09:26:05;100760.13;;;11.53;85.15
80648;BME280;70012;0.000;0.000;2024-02-15T09:28:32;100764.63;;;11.60;85.01
80648;BME280;70012;0.000;0.000;2024-02-15T09:30:59;100761.69;;;11.66;84.25
80648;BME280;70012;0.000;0.000;2024-02-15T09:33:26;100753.78;;;11.70;84.17
80648;BME280;70012;0.000;0.000;2024-02-15T09:35:52;100761.59;;;11.78;83.52
80648;BME280;70012;0.000;0.000;2024-02-15T09:38:21;100751.78;;;11.82;83.91
80648;BME280;70012;0.000;0.000;2024-02-15T09:40:48;100755.16;;;11.90;84.08
80648;BME280;70012;0.000;0.000;2024-02-15T09:43:16;100752.63;;;12.00;83.22
80648;BME280;70012;0.000;0.000;2024-02-15T09:45:43;100749.09;;;12.05;83.56
80648;BME280;70012;0.000;0.000;2024-02-15T09:48:10;100747.59;;;12.14;83.94
80648;BME280;70012;0.000;0.000;2024-02-15T09:50:41;100750.22;;;12.26;82.26
80648;BME280;70012;0.000;0.000;2024-02-15T09:53:13;100742.63;;;12.33;81.18
80648;BME280;70012;0.000;0.000;2024-02-15T09:55:42;100741.34;;;12.41;80.64
80648;BME280;70012;0.000;0.000;2024-02-15T09:58:09;100743.81;;;12.42;81.17
80648;BME280;70012;0.000;0.000;2024-02-15T10:00:36;100745.78;;;12.47;80.78
80648;BME280;70012;0.000;0.000;2024-02-15T10:03:05;100750.00;;;12.55;80.75
80648;BME280;70012;0.000;0.000;2024-02-15T10:05:32;100749.50;;;12.58;80.30
80648;BME280;70012;0.000;0.000;2024-02-15T10:07:59;100745.13;;;12.62;80.55
80648;BME280;70012;0.000;0.000;2024-02-15T10:10:27;100745.78;;;12.69;80.43
80648;BME280;70012;0.000;0.000;2024-02-15T10:12:55;100750.00;;;12.77;79.47
80648;BME280;70012;0.000;0.000;2024-02-15T10:15:28;100752.78;;;12.82;80.03
80648;BME280;70012;0.000;0.000;2024-02-15T10:18:01;100753.41;;;12.89;79.78
80648;BME280;70012;0.000;0.000;2024-02-15T10:20:29;100753.19;;;12.96;78.67
80648;BME280;70012;0.000;0.000;2024-02-15T10:23:08;100759.63;;;13.07;80.10
80648;BME280;70012;0.000;0.000;2024-02-15T10:25:37;100746.47;;;13.09;79.36
80648;BME280;70012;0.000;0.000;2024-02-15T10:28:14;100751.72;;;13.16;77.85
80648;BME280;70012;0.000;0.000;2024-02-15T10:30:46;100755.09;;;13.23;79.06
80648;BME280;70012;0.000;0.000;2024-02-15T10:33:33;100745.28;;;13.32;77.35
80648;BME280;70012;0.000;0.000;2024-02-15T10:36:08;100737.69;;;13.39;77.11
80648;BME280;70012;0.000;0.000;2024-02-15T10:38:35;100735.53;;;13.47;76.50
80648;BME280;70012;0.000;0.000;2024-02-15T10:41:06;100730.66;;;13.54;75.30
80648;BME280;70012;0.000;0.000;2024-02-15T10:43:34;100724.31;;;13.58;76.37
80648;BME280;70012;0.000;0.000;2024-02-15T10:46:01;100722.19;;;13.66;76.59
80648;BME280;70012;0.000;0.000;2024-02-15T10:48:27;100714.28;;;13.74;76.62
80648;BME280;70012;0.000;0.000;2024-02-15T10:50:56;100712.66;;;13.84;75.63
80648;BME280;70012;0.000;0.000;2024-02-15T10:53:30;100710.22;;;13.92;76.13
80648;BME280;70012;0.000;0.000;2024-02-15T10:58:32;100710.03;;;14.09;74.85
80648;BME280;70012;0.000;0.000;2024-02-15T11:01:02;100711.72;;;14.16;75.95
80648;BME280;70012;0.000;0.000;2024-02-15T11:03:54;100703.50;;;14.26;76.31
80648;BME280;70012;0.000;0.000;2024-02-15T11:06:27;100707.09;;;14.32;75.37
80648;BME280;70012;0.000;0.000;2024-02-15T11:08:54;100700.25;;;14.34;74.63
80648;BME280;70012;0.000;0.000;2024-02-15T11:11:22;100693.66;;;14.40;75.22
80648;BME280;70012;0.000;0.000;2024-02-15T11:13:49;100700.28;;;14.45;74.72
80648;BME280;70012;0.000;0.000;2024-02-15T11:16:39;100689.81;;;14.52;73.89
80648;BME280;70012;0.000;0.000;2024-02-15T11:19:06;100694.81;;;14.55;73.15
80648;BME280;70012;0.000;0.000;2024-02-15T11:21:53;100693.72;;;14.61;73.83
80648;BME280;70012;0.000;0.000;2024-02-15T11:24:29;100684.09;;;14.69;72.34
80648;BME280;70012;0.000;0.000;2024-02-15T11:26:59;100682.44;;;14.73;73.99
80648;BME280;70012;0.000;0.000;2024-02-15T11:29:57;100674.75;;;14.80;73.20
80648;BME280;70012;0.000;0.000;2024-02-15T11:32:42;100679.72;;;14.88;74.02
80648;BME280;70012;0.000;0.000;2024-02-15T11:35:20;100665.41;;;14.97;74.00
80648;BME280;70012;0.000;0.000;2024-02-15T11:40:28;100661.81;;;15.07;73.46
80648;BME280;70012;0.000;0.000;2024-02-15T11:45:28;100651.31;;;15.19;69.00
80648;BME280;70012;0.000;0.000;2024-02-15T11:48:08;100645.25;;;15.27;67.65
80648;BME280;70012;0.000;0.000;2024-02-15T11:50:38;100639.16;;;15.30;67.26
80648;BME280;70012;0.000;0.000;2024-02-15T11:53:09;100649.69;;;15.28;69.57
80648;BME280;70012;0.000;0.000;2024-02-15T11:55:38;100643.03;;;15.29;70.12
80648;BME280;70012;0.000;0.000;2024-02-15T11:58:06;100636.69;;;15.34;69.26
80648;BME280;70012;0.000;0.000;2024-02-15T12:00:38;100637.50;;;15.40;67.19
80648;BME280;70012;0.000;0.000;2024-02-15T12:03:25;100642.44;;;15.43;69.08
80648;BME280;70012;0.000;0.000;2024-02-15T12:06:27;100633.06;;;15.44;67.76
80648;BME280;70012;0.000;0.000;2024-02-15T12:09:17;100637.50;;;15.45;68.87
80648;BME280;70012;0.000;0.000;2024-02-15T12:12:04;100633.06;;;15.44;69.34
80648;BME280;70012;0.000;0.000;2024-02-15T12:14:49;100629.75;;;15.52;67.82
80648;BME280;70012;0.000;0.000;2024-02-15T12:17:35;100629.19;;;15.50;68.11
80648;BME280;70012;0.000;0.000;2024-02-15T12:20:20;100624.78;;;15.49;67.14
80648;BME280;70012;0.000;0.000;2024-02-15T12:22:52;100620.38;;;15.53;66.75
80648;BME280;70012;0.000;0.000;2024-02-15T12:25:20;100614.00;;;15.52;67.80
80648;BME280;70012;0.000;0.000;2024-02-15T12:27:55;100613.72;;;15.59;66.71
80648;BME280;70012;0.000;0.000;2024-02-15T12:30:22;100611.53;;;15.61;68.42
80648;BME280;70012;0.000;0.000;2024-02-15T12:32:52;100600.44;;;15.72;66.75
80648;BME280;70012;0.000;0.000;2024-02-15T12:35:35;100593.25;;;15.81;67.58
80648;BME280;70012;0.000;0.000;2024-02-15T12:38:03;100591.56;;;15.90;66.01
80648;BME280;70012;0.000;0.000;2024-02-15T12:40:34;100606.69;;;16.03;64.24
80648;BME280;70012;0.000;0.000;2024-02-15T12:43:01;100590.38;;;16.07;64.50
80648;BME280;70012;0.000;0.000;2024-02-15T12:45:28;100592.56;;;16.10;66.58
80648;BME280;70012;0.000;0.000;2024-02-15T12:47:56;100590.88;;;16.19;65.87
80648;BME280;70012;0.000;0.000;2024-02-15T12:50:29;100577.06;;;16.19;66.40
80648;BME280;70012;0.000;0.000;2024-02-15T12:52:56;100581.72;;;16.24;64.13
80648;BME280;70012;0.000;0.000;2024-02-15T12:55:29;100574.25;;;16.24;66.57
80648;BME280;70012;0.000;0.000;2024-02-15T12:58:03;100578.13;;;16.23;66.02
80648;BME280;70012;0.000;0.000;2024-02-15T13:00:31;100568.47;;;16.21;64.82
80648;BME280;70012;0.000;0.000;2024-02-15T13:03:02;100572.09;;;16.16;63.49
80648;BME280;70012;0.000;0.000;2024-02-15T13:05:30;100567.19;;;16.08;61.54
80648;BME280;70012;0.000;0.000;2024-02-15T13:07:58;100568.28;;;16.07;62.94
80648;BME280;70012;0.000;0.000;2024-02-15T13:10:24;100558.94;;;15.97;61.82
80648;BME280;70012;0.000;0.000;2024-02-15T13:12:52;100557.88;;;15.93;63.50
80648;BME280;70012;0.000;0.000;2024-02-15T13:15:19;100545.72;;;15.89;62.35
80648;BME280;70012;0.000;0.000;2024-02-15T13:17:48;100546.88;;;15.78;61.48
80648;BME280;70012;0.000;0.000;2024-02-15T13:20:18;100543.03;;;15.74;62.24
80648;BME280;70012;0.000;0.000;2024-02-15T13:22:47;100539.19;;;15.64;62.42